Aldan, Russia
Current Conditions -  °F | °C
As of 11:30 AM on Sunday 26 Oct 2014 (Local Time) from UEEE Reporting Station
Clear Clear  
Wind Chill:   Ceiling: Unl
Heat Index:   Visibility: 6mi
Dew Point:   Wind: 2mph
Humidity: 85%   Direction: 240°WSW
Pressure: 30.5"   Gusts: NA
Location:  58.61°N, 125.39°E
Report Text: UEEE 260230Z 24001MPS CAVOK M14/M16 Q1033 NOSIG RMK QFE76623490150
Loading
Personal Weather Stations






























Interactive Weather Map
Tropical Storm Tracking
New forecast layout! Learn more

10-Day Weather Forecast

Advertisements
Track Severe Weather on mobile